sensor_id;sensor_type;location;lat;lon;timestamp;temperature;humidity
20829;DHT22;10575;50.124;8.582;2023-03-08T00:00:07;5.40;99.90
20829;DHT22;10575;50.124;8.582;2023-03-08T00:02:35;5.40;99.90
20829;DHT22;10575;50.124;8.582;2023-03-08T00:05:00;5.30;99.90
20829;DHT22;10575;50.124;8.582;2023-03-08T00:07:26;5.30;99.90
20829;DHT22;10575;50.124;8.582;2023-03-08T00:09:52;5.40;99.90
20829;DHT22;10575;50.124;8.582;2023-03-08T00:12:18;5.40;99.90
20829;DHT22;10575;50.124;8.582;2023-03-08T00:14:44;5.30;99.90
20829;DHT22;10575;50.124;8.582;2023-03-08T00:17:10;5.40;99.90
20829;DHT22;10575;50.124;8.582;2023-03-08T00:19:39;5.40;99.90
20829;DHT22;10575;50.124;8.582;2023-03-08T00:22:04;5.40;99.90
20829;DHT22;10575;50.124;8.582;2023-03-08T00:24:30;5.50;99.90
20829;DHT22;10575;50.124;8.582;2023-03-08T00:26:55;5.40;99.90
20829;DHT22;10575;50.124;8.582;2023-03-08T00:29:21;5.30;99.90
20829;DHT22;10575;50.124;8.582;2023-03-08T00:31:47;5.40;99.90
20829;DHT22;10575;50.124;8.582;2023-03-08T00:34:12;5.40;99.90
20829;DHT22;10575;50.124;8.582;2023-03-08T00:36:38;5.30;99.90
20829;DHT22;10575;50.124;8.582;2023-03-08T00:39:03;5.30;99.90
20829;DHT22;10575;50.124;8.582;2023-03-08T00:41:29;5.20;99.90
20829;DHT22;10575;50.124;8.582;2023-03-08T00:43:54;5.10;99.90
20829;DHT22;10575;50.124;8.582;2023-03-08T00:46:20;5.20;99.90
20829;DHT22;10575;50.124;8.582;2023-03-08T00:48:45;5.30;99.90
20829;DHT22;10575;50.124;8.582;2023-03-08T00:51:13;5.30;99.90
20829;DHT22;10575;50.124;8.582;2023-03-08T00:53:38;5.30;99.90
20829;DHT22;10575;50.124;8.582;2023-03-08T00:56:04;5.30;99.90
20829;DHT22;10575;50.124;8.582;2023-03-08T00:58:30;5.30;99.90
20829;DHT22;10575;50.124;8.582;2023-03-08T01:00:56;5.30;99.90
20829;DHT22;10575;50.124;8.582;2023-03-08T01:03:22;5.30;99.90
20829;DHT22;10575;50.124;8.582;2023-03-08T01:05:50;5.30;99.90
20829;DHT22;10575;50.124;8.582;2023-03-08T01:08:17;5.30;99.90
20829;DHT22;10575;50.124;8.582;2023-03-08T01:10:57;5.20;99.90
20829;DHT22;10575;50.124;8.582;2023-03-08T01:13:25;5.20;99.90
20829;DHT22;10575;50.124;8.582;2023-03-08T01:15:51;5.30;99.90
20829;DHT22;10575;50.124;8.582;2023-03-08T01:18:16;5.40;99.90
20829;DHT22;10575;50.124;8.582;2023-03-08T01:20:42;5.40;99.90
20829;DHT22;10575;50.124;8.582;2023-03-08T01:23:08;5.40;99.90
20829;DHT22;10575;50.124;8.582;2023-03-08T01:25:34;5.40;99.90
20829;DHT22;10575;50.124;8.582;2023-03-08T01:27:59;5.40;99.90
20829;DHT22;10575;50.124;8.582;2023-03-08T01:30:25;5.50;99.90
20829;DHT22;10575;50.124;8.582;2023-03-08T01:32:51;5.50;99.90
20829;DHT22;10575;50.124;8.582;2023-03-08T01:35:16;5.50;99.90
20829;DHT22;10575;50.124;8.582;2023-03-08T01:37:42;5.50;99.90
20829;DHT22;10575;50.124;8.582;2023-03-08T01:40:08;5.50;99.90
20829;DHT22;10575;50.124;8.582;2023-03-08T01:42:37;5.50;99.90
20829;DHT22;10575;50.124;8.582;2023-03-08T01:45:05;5.40;99.90
20829;DHT22;10575;50.124;8.582;2023-03-08T01:47:32;5.50;99.90
20829;DHT22;10575;50.124;8.582;2023-03-08T01:50:08;5.50;99.90
20829;DHT22;10575;50.124;8.582;2023-03-08T01:52:42;5.50;99.90
20829;DHT22;10575;50.124;8.582;2023-03-08T01:55:12;5.40;99.90
20829;DHT22;10575;50.124;8.582;2023-03-08T01:57:41;5.40;99.90
20829;DHT22;10575;50.124;8.582;2023-03-08T02:00:11;5.40;99.90
20829;DHT22;10575;50.124;8.582;2023-03-08T02:02:42;5.40;99.90
20829;DHT22;10575;50.124;8.582;2023-03-08T02:05:09;5.40;99.90
20829;DHT22;10575;50.124;8.582;2023-03-08T02:07:35;5.30;99.90
20829;DHT22;10575;50.124;8.582;2023-03-08T02:10:01;5.30;99.90
20829;DHT22;10575;50.124;8.582;2023-03-08T02:12:27;5.30;99.90
20829;DHT22;10575;50.124;8.582;2023-03-08T02:14:54;5.30;99.90
20829;DHT22;10575;50.124;8.582;2023-03-08T02:17:20;5.30;99.90
20829;DHT22;10575;50.124;8.582;2023-03-08T02:22:24;5.10;99.90
20829;DHT22;10575;50.124;8.582;2023-03-08T02:24:50;5.10;99.90
20829;DHT22;10575;50.124;8.582;2023-03-08T02:27:21;5.20;99.90
20829;DHT22;10575;50.124;8.582;2023-03-08T02:29:47;5.20;99.90
20829;DHT22;10575;50.124;8.582;2023-03-08T02:32:13;5.30;99.90
20829;DHT22;10575;50.124;8.582;2023-03-08T02:34:40;5.40;99.90
20829;DHT22;10575;50.124;8.582;2023-03-08T02:37:05;5.40;99.90
20829;DHT22;10575;50.124;8.582;2023-03-08T02:39:31;5.40;99.90
20829;DHT22;10575;50.124;8.582;2023-03-08T02:41:56;5.40;99.90
20829;DHT22;10575;50.124;8.582;2023-03-08T02:44:22;5.50;99.90
20829;DHT22;10575;50.124;8.582;2023-03-08T02:46:47;5.50;99.90
20829;DHT22;10575;50.124;8.582;2023-03-08T02:49:13;5.50;99.90
20829;DHT22;10575;50.124;8.582;2023-03-08T02:51:39;5.40;99.90
20829;DHT22;10575;50.124;8.582;2023-03-08T02:54:04;5.40;99.90
20829;DHT22;10575;50.124;8.582;2023-03-08T02:56:30;5.30;99.90
20829;DHT22;10575;50.124;8.582;2023-03-08T02:58:55;5.30;99.90
20829;DHT22;10575;50.124;8.582;2023-03-08T03:01:21;5.30;99.90
20829;DHT22;10575;50.124;8.582;2023-03-08T03:03:47;5.30;99.90
20829;DHT22;10575;50.124;8.582;2023-03-08T03:06:18;5.30;99.90
20829;DHT22;10575;50.124;8.582;2023-03-08T03:08:44;5.30;99.90
20829;DHT22;10575;50.124;8.582;2023-03-08T03:11:18;5.30;99.90
20829;DHT22;10575;50.124;8.582;2023-03-08T03:13:44;5.20;99.90
20829;DHT22;10575;50.124;8.582;2023-03-08T03:16:12;5.00;99.90
20829;DHT22;10575;50.124;8.582;2023-03-08T03:18:38;4.90;99.90
20829;DHT22;10575;50.124;8.582;2023-03-08T03:21:06;4.90;99.90
20829;DHT22;10575;50.124;8.582;2023-03-08T03:23:31;4.90;99.90
20829;DHT22;10575;50.124;8.582;2023-03-08T03:26:10;5.10;99.90
20829;DHT22;10575;50.124;8.582;2023-03-08T03:28:36;5.10;99.90
20829;DHT22;10575;50.124;8.582;2023-03-08T03:31:06;5.10;99.90
20829;DHT22;10575;50.124;8.582;2023-03-08T03:33:32;5.10;99.90
20829;DHT22;10575;50.124;8.582;2023-03-08T03:35:58;5.10;99.90
20829;DHT22;10575;50.124;8.582;2023-03-08T03:38:23;5.10;99.90
20829;DHT22;10575;50.124;8.582;2023-03-08T03:40:49;5.20;99.90
20829;DHT22;10575;50.124;8.582;2023-03-08T03:43:15;5.20;99.90
20829;DHT22;10575;50.124;8.582;2023-03-08T03:45:40;5.20;99.90
20829;DHT22;10575;50.124;8.582;2023-03-08T03:48:06;5.20;99.90
20829;DHT22;10575;50.124;8.582;2023-03-08T03:50:31;5.20;99.90
20829;DHT22;10575;50.124;8.582;2023-03-08T03:52:57;5.30;99.90
20829;DHT22;10575;50.124;8.582;2023-03-08T03:55:22;5.20;99.90
20829;DHT22;10575;50.124;8.582;2023-03-08T03:57:48;5.20;99.90
20829;DHT22;10575;50.124;8.582;2023-03-08T04:00:13;5.20;99.90
20829;DHT22;10575;50.124;8.582;2023-03-08T04:02:39;5.00;99.90
20829;DHT22;10575;50.124;8.582;2023-03-08T04:05:05;5.00;99.90
20829;DHT22;10575;50.124;8.582;2023-03-08T04:07:32;5.10;99.90
20829;DHT22;10575;50.124;8.582;2023-03-08T04:09:58;5.20;99.90
20829;DHT22;10575;50.124;8.582;2023-03-08T04:12:23;5.10;99.90
20829;DHT22;10575;50.124;8.582;2023-03-08T04:14:49;5.10;99.90
20829;DHT22;10575;50.124;8.582;2023-03-08T04:17:15;5.20;99.90
20829;DHT22;10575;50.124;8.582;2023-03-08T04:19:40;5.20;99.90
20829;DHT22;10575;50.124;8.582;2023-03-08T04:22:06;5.10;99.90
20829;DHT22;10575;50.124;8.582;2023-03-08T04:24:31;5.10;99.90
20829;DHT22;10575;50.124;8.582;2023-03-08T04:26:57;5.00;99.90
20829;DHT22;10575;50.124;8.582;2023-03-08T04:29:22;5.00;99.90
20829;DHT22;10575;50.124;8.582;2023-03-08T04:31:48;4.80;99.90
20829;DHT22;10575;50.124;8.582;2023-03-08T04:34:13;4.80;99.90
20829;DHT22;10575;50.124;8.582;2023-03-08T04:36:39;4.80;99.90
20829;DHT22;10575;50.124;8.582;2023-03-08T04:39:04;4.80;99.90
20829;DHT22;10575;50.124;8.582;2023-03-08T04:41:30;4.80;99.90
20829;DHT22;10575;50.124;8.582;2023-03-08T04:43:56;4.80;99.90
20829;DHT22;10575;50.124;8.582;2023-03-08T04:46:25;4.90;99.90
20829;DHT22;10575;50.124;8.582;2023-03-08T04:48:52;4.80;99.90
20829;DHT22;10575;50.124;8.582;2023-03-08T04:51:18;4.70;99.90
20829;DHT22;10575;50.124;8.582;2023-03-08T04:53:44;4.50;99.90
20829;DHT22;10575;50.124;8.582;2023-03-08T04:56:11;4.50;99.90
20829;DHT22;10575;50.124;8.582;2023-03-08T04:58:37;4.40;99.90
20829;DHT22;10575;50.124;8.582;2023-03-08T05:01:11;4.20;99.90
20829;DHT22;10575;50.124;8.582;2023-03-08T05:03:37;4.20;99.90
20829;DHT22;10575;50.124;8.582;2023-03-08T05:06:03;4.30;99.90
20829;DHT22;10575;50.124;8.582;2023-03-08T05:08:29;4.40;99.90
20829;DHT22;10575;50.124;8.582;2023-03-08T05:10:56;4.30;99.90
20829;DHT22;10575;50.124;8.582;2023-03-08T05:13:24;4.20;99.90
20829;DHT22;10575;50.124;8.582;2023-03-08T05:15:49;4.20;99.90
20829;DHT22;10575;50.124;8.582;2023-03-08T05:18:15;4.00;99.90
20829;DHT22;10575;50.124;8.582;2023-03-08T05:20:40;4.00;99.90
20829;DHT22;10575;50.124;8.582;2023-03-08T05:23:06;4.00;99.90
20829;DHT22;10575;50.124;8.582;2023-03-08T05:25:32;4.10;99.90
20829;DHT22;10575;50.124;8.582;2023-03-08T05:27:58;4.20;99.90
20829;DHT22;10575;50.124;8.582;2023-03-08T05:30:24;4.20;99.90
20829;DHT22;10575;50.124;8.582;2023-03-08T05:32:49;4.20;99.90
20829;DHT22;10575;50.124;8.582;2023-03-08T05:35:15;4.40;99.90
20829;DHT22;10575;50.124;8.582;2023-03-08T05:37:40;4.50;99.90
20829;DHT22;10575;50.124;8.582;2023-03-08T05:40:06;4.60;99.90
20829;DHT22;10575;50.124;8.582;2023-03-08T05:42:32;4.60;99.90
20829;DHT22;10575;50.124;8.582;2023-03-08T05:44:58;4.70;99.90
20829;DHT22;10575;50.124;8.582;2023-03-08T05:47:24;4.70;99.90
20829;DHT22;10575;50.124;8.582;2023-03-08T05:49:50;4.70;99.90
20829;DHT22;10575;50.124;8.582;2023-03-08T05:52:16;4.70;99.90
20829;DHT22;10575;50.124;8.582;2023-03-08T05:54:42;4.70;99.90
20829;DHT22;10575;50.124;8.582;2023-03-08T05:57:08;4.70;99.90
20829;DHT22;10575;50.124;8.582;2023-03-08T05:59:33;4.70;99.90
20829;DHT22;10575;50.124;8.582;2023-03-08T06:01:59;4.60;99.90
20829;DHT22;10575;50.124;8.582;2023-03-08T06:04:25;4.70;99.90
20829;DHT22;10575;50.124;8.582;2023-03-08T06:06:50;4.70;99.90
20829;DHT22;10575;50.124;8.582;2023-03-08T06:09:16;4.60;99.90
20829;DHT22;10575;50.124;8.582;2023-03-08T06:11:41;4.60;99.90
20829;DHT22;10575;50.124;8.582;2023-03-08T06:14:07;4.70;99.90
20829;DHT22;10575;50.124;8.582;2023-03-08T06:16:32;4.70;99.90
20829;DHT22;10575;50.124;8.582;2023-03-08T06:18:58;4.80;99.90
20829;DHT22;10575;50.124;8.582;2023-03-08T06:21:25;4.80;99.90
20829;DHT22;10575;50.124;8.582;2023-03-08T06:23:50;4.60;99.90
20829;DHT22;10575;50.124;8.582;2023-03-08T06:26:16;4.60;99.90
20829;DHT22;10575;50.124;8.582;2023-03-08T06:28:42;4.60;99.90
20829;DHT22;10575;50.124;8.582;2023-03-08T06:31:11;4.70;99.90
20829;DHT22;10575;50.124;8.582;2023-03-08T06:33:37;4.80;99.90
20829;DHT22;10575;50.124;8.582;2023-03-08T06:36:04;4.70;99.90
20829;DHT22;10575;50.124;8.582;2023-03-08T06:38:32;4.80;99.90
20829;DHT22;10575;50.124;8.582;2023-03-08T06:40:58;4.80;99.90
20829;DHT22;10575;50.124;8.582;2023-03-08T06:43:24;4.90;99.90
20829;DHT22;10575;50.124;8.582;2023-03-08T06:45:50;4.90;99.90
20829;DHT22;10575;50.124;8.582;2023-03-08T06:48:16;5.00;99.90
20829;DHT22;10575;50.124;8.582;2023-03-08T06:50:42;5.00;99.90
20829;DHT22;10575;50.124;8.582;2023-03-08T06:53:08;5.00;99.90
20829;DHT22;10575;50.124;8.582;2023-03-08T06:55:34;5.00;99.90
20829;DHT22;10575;50.124;8.582;2023-03-08T06:58:00;4.90;99.90
20829;DHT22;10575;50.124;8.582;2023-03-08T07:00:26;5.00;99.90
20829;DHT22;10575;50.124;8.582;2023-03-08T07:02:51;5.00;99.90
20829;DHT22;10575;50.124;8.582;2023-03-08T07:05:18;5.00;99.90
20829;DHT22;10575;50.124;8.582;2023-03-08T07:07:44;5.00;99.90
20829;DHT22;10575;50.124;8.582;2023-03-08T07:10:10;5.00;99.90
20829;DHT22;10575;50.124;8.582;2023-03-08T07:12:39;4.90;99.90
20829;DHT22;10575;50.124;8.582;2023-03-08T07:15:09;5.00;99.90
20829;DHT22;10575;50.124;8.582;2023-03-08T07:17:34;5.00;99.90
20829;DHT22;10575;50.124;8.582;2023-03-08T07:20:01;4.80;99.90
20829;DHT22;10575;50.124;8.582;2023-03-08T07:22:29;4.70;99.90
20829;DHT22;10575;50.124;8.582;2023-03-08T07:24:55;4.70;99.90
20829;DHT22;10575;50.124;8.582;2023-03-08T07:27:20;4.60;99.90
20829;DHT22;10575;50.124;8.582;2023-03-08T07:29:46;4.60;99.90
20829;DHT22;10575;50.124;8.582;2023-03-08T07:32:11;4.60;99.90
20829;DHT22;10575;50.124;8.582;2023-03-08T07:34:37;4.50;99.90
20829;DHT22;10575;50.124;8.582;2023-03-08T07:37:02;4.50;99.90
20829;DHT22;10575;50.124;8.582;2023-03-08T07:39:28;4.50;99.90
20829;DHT22;10575;50.124;8.582;2023-03-08T07:41:53;4.40;99.90
20829;DHT22;10575;50.124;8.582;2023-03-08T07:44:19;4.40;99.90
20829;DHT22;10575;50.124;8.582;2023-03-08T07:46:45;4.40;99.90
20829;DHT22;10575;50.124;8.582;2023-03-08T07:49:11;4.30;99.90
20829;DHT22;10575;50.124;8.582;2023-03-08T07:51:37;4.30;99.90
20829;DHT22;10575;50.124;8.582;2023-03-08T07:54:02;4.30;99.90
20829;DHT22;10575;50.124;8.582;2023-03-08T07:56:28;4.40;99.90
20829;DHT22;10575;50.124;8.582;2023-03-08T07:58:57;4.40;99.90
20829;DHT22;10575;50.124;8.582;2023-03-08T08:01:22;4.50;99.90
20829;DHT22;10575;50.124;8.582;2023-03-08T08:03:49;4.50;99.90
20829;DHT22;10575;50.124;8.582;2023-03-08T08:06:14;4.60;99.90
20829;DHT22;10575;50.124;8.582;2023-03-08T08:08:40;4.50;99.90
20829;DHT22;10575;50.124;8.582;2023-03-08T08:11:13;4.40;99.90
20829;DHT22;10575;50.124;8.582;2023-03-08T08:13:39;4.40;99.90
20829;DHT22;10575;50.124;8.582;2023-03-08T08:16:06;4.40;99.90
20829;DHT22;10575;50.124;8.582;2023-03-08T08:18:32;4.30;99.90
20829;DHT22;10575;50.124;8.582;2023-03-08T08:21:06;4.30;99.90
20829;DHT22;10575;50.124;8.582;2023-03-08T08:23:32;4.30;99.90
20829;DHT22;10575;50.124;8.582;2023-03-08T08:25:58;4.30;99.90
20829;DHT22;10575;50.124;8.582;2023-03-08T08:28:24;4.30;99.90
20829;DHT22;10575;50.124;8.582;2023-03-08T08:31:05;4.30;99.90
20829;DHT22;10575;50.124;8.582;2023-03-08T08:33:32;4.30;99.90
20829;DHT22;10575;50.124;8.582;2023-03-08T08:35:58;4.20;99.90
20829;DHT22;10575;50.124;8.582;2023-03-08T08:38:25;4.30;99.90
20829;DHT22;10575;50.124;8.582;2023-03-08T08:40:51;4.30;99.90
20829;DHT22;10575;50.124;8.582;2023-03-08T08:43:17;4.40;99.90
20829;DHT22;10575;50.124;8.582;2023-03-08T08:45:47;4.40;99.90
20829;DHT22;10575;50.124;8.582;2023-03-08T08:48:14;4.50;99.90
20829;DHT22;10575;50.124;8.582;2023-03-08T08:50:40;4.50;99.90
20829;DHT22;10575;50.124;8.582;2023-03-08T08:53:07;4.50;99.90
20829;DHT22;10575;50.124;8.582;2023-03-08T08:55:34;4.50;99.90
20829;DHT22;10575;50.124;8.582;2023-03-08T08:58:01;4.50;99.90
20829;DHT22;10575;50.124;8.582;2023-03-08T09:00:26;4.50;99.90
20829;DHT22;10575;50.124;8.582;2023-03-08T09:02:52;4.50;99.90
20829;DHT22;10575;50.124;8.582;2023-03-08T09:05:17;4.50;99.90
20829;DHT22;10575;50.124;8.582;2023-03-08T09:07:43;4.50;99.90
20829;DHT22;10575;50.124;8.582;2023-03-08T09:10:09;4.50;99.90
20829;DHT22;10575;50.124;8.582;2023-03-08T09:12:35;4.60;99.90
20829;DHT22;10575;50.124;8.582;2023-03-08T09:15:00;4.70;99.90
20829;DHT22;10575;50.124;8.582;2023-03-08T09:17:26;4.80;99.90
20829;DHT22;10575;50.124;8.582;2023-03-08T09:19:52;4.80;99.90
20829;DHT22;10575;50.124;8.582;2023-03-08T09:22:17;4.80;99.90
20829;DHT22;10575;50.124;8.582;2023-03-08T09:24:43;4.80;99.90
20829;DHT22;10575;50.124;8.582;2023-03-08T09:27:10;4.80;99.90
20829;DHT22;10575;50.124;8.582;2023-03-08T09:29:36;4.80;99.90
20829;DHT22;10575;50.124;8.582;2023-03-08T09:32:03;4.80;99.90
20829;DHT22;10575;50.124;8.582;2023-03-08T09:34:28;4.90;99.90
20829;DHT22;10575;50.124;8.582;2023-03-08T09:36:54;4.90;99.90
20829;DHT22;10575;50.124;8.582;2023-03-08T09:39:19;4.90;99.90
20829;DHT22;10575;50.124;8.582;2023-03-08T09:41:58;4.90;99.90
20829;DHT22;10575;50.124;8.582;2023-03-08T09:45:22;4.80;99.90
20829;DHT22;10575;50.124;8.582;2023-03-08T09:48:09;4.80;99.90
20829;DHT22;10575;50.124;8.582;2023-03-08T09:50:47;4.80;99.90
20829;DHT22;10575;50.124;8.582;2023-03-08T09:53:27;4.80;99.90
20829;DHT22;10575;50.124;8.582;2023-03-08T09:56:04;4.80;99.90
20829;DHT22;10575;50.124;8.582;2023-03-08T09:58:43;4.80;99.90
20829;DHT22;10575;50.124;8.582;2023-03-08T10:07:01;4.60;99.90
20829;DHT22;10575;50.124;8.582;2023-03-08T10:09:49;4.60;99.90
20829;DHT22;10575;50.124;8.582;2023-03-08T10:12:27;4.60;99.90
20829;DHT22;10575;50.124;8.582;2023-03-08T10:15:00;4.60;99.90
20829;DHT22;10575;50.124;8.582;2023-03-08T10:20:20;4.80;99.90
20829;DHT22;10575;50.124;8.582;2023-03-08T10:22:53;4.90;99.90
20829;DHT22;10575;50.124;8.582;2023-03-08T10:25:28;5.00;99.90
20829;DHT22;10575;50.124;8.582;2023-03-08T10:27:57;4.90;99.90
20829;DHT22;10575;50.124;8.582;2023-03-08T10:30:34;4.80;99.90
20829;DHT22;10575;50.124;8.582;2023-03-08T10:33:04;4.90;99.90
20829;DHT22;10575;50.124;8.582;2023-03-08T10:35:35;4.90;99.90
20829;DHT22;10575;50.124;8.582;2023-03-08T10:38:13;4.90;99.90
20829;DHT22;10575;50.124;8.582;2023-03-08T10:40:39;4.90;99.90
20829;DHT22;10575;50.124;8.582;2023-03-08T10:43:05;5.00;99.90
20829;DHT22;10575;50.124;8.582;2023-03-08T10:45:31;5.00;99.90
20829;DHT22;10575;50.124;8.582;2023-03-08T10:48:02;5.10;99.90
20829;DHT22;10575;50.124;8.582;2023-03-08T10:50:37;5.10;99.90
20829;DHT22;10575;50.124;8.582;2023-03-08T10:53:13;5.20;99.90
20829;DHT22;10575;50.124;8.582;2023-03-08T10:55:51;5.30;99.90
20829;DHT22;10575;50.124;8.582;2023-03-08T10:58:38;5.40;99.90
20829;DHT22;10575;50.124;8.582;2023-03-08T11:04:01;5.40;99.90
20829;DHT22;10575;50.124;8.582;2023-03-08T11:06:27;5.30;99.90
20829;DHT22;10575;50.124;8.582;2023-03-08T11:08:58;5.20;99.90
20829;DHT22;10575;50.124;8.582;2023-03-08T11:11:24;5.10;99.90
20829;DHT22;10575;50.124;8.582;2023-03-08T11:13:51;5.10;99.90
20829;DHT22;10575;50.124;8.582;2023-03-08T11:33:01;4.90;99.90
20829;DHT22;10575;50.124;8.582;2023-03-08T11:36:01;4.80;99.90
20829;DHT22;10575;50.124;8.582;2023-03-08T11:38:31;5.00;99.90
20829;DHT22;10575;50.124;8.582;2023-03-08T11:49:25;5.40;99.90
20829;DHT22;10575;50.124;8.582;2023-03-08T11:57:53;5.50;99.90
20829;DHT22;10575;50.124;8.582;2023-03-08T12:00:34;5.40;99.90
20829;DHT22;10575;50.124;8.582;2023-03-08T12:03:08;5.20;99.90
20829;DHT22;10575;50.124;8.582;2023-03-08T12:05:41;5.20;99.90
20829;DHT22;10575;50.124;8.582;2023-03-08T12:10:46;5.20;99.90
20829;DHT22;10575;50.124;8.582;2023-03-08T12:13:33;5.30;99.90
20829;DHT22;10575;50.124;8.582;2023-03-08T12:19:20;5.80;99.90
20829;DHT22;10575;50.124;8.582;2023-03-08T12:24:45;5.90;99.90
20829;DHT22;10575;50.124;8.582;2023-03-08T12:32:26;5.80;99.90
20829;DHT22;10575;50.124;8.582;2023-03-08T12:35:23;5.80;99.90
20829;DHT22;10575;50.124;8.582;2023-03-08T12:38:24;5.90;99.90
20829;DHT22;10575;50.124;8.582;2023-03-08T12:40:53;5.90;99.90
20829;DHT22;10575;50.124;8.582;2023-03-08T12:56:22;5.60;99.90
20829;DHT22;10575;50.124;8.582;2023-03-08T12:58:52;5.60;99.90
20829;DHT22;10575;50.124;8.582;2023-03-08T13:01:29;5.60;99.90
20829;DHT22;10575;50.124;8.582;2023-03-08T13:03:55;5.60;99.90
20829;DHT22;10575;50.124;8.582;2023-03-08T13:08:57;5.90;99.90
20829;DHT22;10575;50.124;8.582;2023-03-08T13:11:24;6.00;99.90
20829;DHT22;10575;50.124;8.582;2023-03-08T13:13:55;5.90;99.90
20829;DHT22;10575;50.124;8.582;2023-03-08T13:16:34;5.70;99.90
20829;DHT22;10575;50.124;8.582;2023-03-08T13:24:37;4.80;99.90
20829;DHT22;10575;50.124;8.582;2023-03-08T13:29:42;4.50;99.90
20829;DHT22;10575;50.124;8.582;2023-03-08T13:32:19;4.50;99.90
20829;DHT22;10575;50.124;8.582;2023-03-08T13:35:01;4.50;99.90
20829;DHT22;10575;50.124;8.582;2023-03-08T13:37:28;4.20;99.90
20829;DHT22;10575;50.124;8.582;2023-03-08T13:39:56;4.10;99.90
20829;DHT22;10575;50.124;8.582;2023-03-08T13:42:24;4.00;99.90
20829;DHT22;10575;50.124;8.582;2023-03-08T13:45:04;4.00;99.90
20829;DHT22;10575;50.124;8.582;2023-03-08T13:47:33;4.00;99.90
20829;DHT22;10575;50.124;8.582;2023-03-08T13:49:59;4.10;99.90
20829;DHT22;10575;50.124;8.582;2023-03-08T13:52:31;4.20;99.90
20829;DHT22;10575;50.124;8.582;2023-03-08T13:55:02;4.30;99.90
20829;DHT22;10575;50.124;8.582;2023-03-08T13:57:30;4.50;99.90
20829;DHT22;10575;50.124;8.582;2023-03-08T14:00:01;4.70;99.90
20829;DHT22;10575;50.124;8.582;2023-03-08T14:02:29;4.70;99.90
20829;DHT22;10575;50.124;8.582;2023-03-08T14:04:56;4.50;99.90
20829;DHT22;10575;50.124;8.582;2023-03-08T14:07:25;4.40;99.90
20829;DHT22;10575;50.124;8.582;2023-03-08T14:09:51;4.20;99.90
20829;DHT22;10575;50.124;8.582;2023-03-08T14:12:19;4.20;99.90
20829;DHT22;10575;50.124;8.582;2023-03-08T14:15:05;4.10;99.90
20829;DHT22;10575;50.124;8.582;2023-03-08T14:17:33;4.10;99.90
20829;DHT22;10575;50.124;8.582;2023-03-08T14:20:04;4.40;99.90
20829;DHT22;10575;50.124;8.582;2023-03-08T14:22:39;4.50;99.90
20829;DHT22;10575;50.124;8.582;2023-03-08T14:25:06;4.50;99.90
20829;DHT22;10575;50.124;8.582;2023-03-08T14:27:42;4.40;99.90
20829;DHT22;10575;50.124;8.582;2023-03-08T14:32:38;4.20;99.90
20829;DHT22;10575;50.124;8.582;2023-03-08T14:37:59;4.00;99.90
20829;DHT22;10575;50.124;8.582;2023-03-08T14:40:30;3.90;99.90
20829;DHT22;10575;50.124;8.582;2023-03-08T14:43:02;3.90;99.90
20829;DHT22;10575;50.124;8.582;2023-03-08T14:45:38;4.00;99.90
20829;DHT22;10575;50.124;8.582;2023-03-08T14:48:34;4.00;99.90
20829;DHT22;10575;50.124;8.582;2023-03-08T14:51:03;4.10;99.90
20829;DHT22;10575;50.124;8.582;2023-03-08T14:53:35;4.10;99.90
20829;DHT22;10575;50.124;8.582;2023-03-08T14:56:06;4.30;99.90
20829;DHT22;10575;50.124;8.582;2023-03-08T14:58:38;4.20;99.90
20829;DHT22;10575;50.124;8.582;2023-03-08T15:01:04;4.10;99.90
20829;DHT22;10575;50.124;8.582;2023-03-08T15:03:30;4.00;99.90
20829;DHT22;10575;50.124;8.582;2023-03-08T15:06:12;4.00;99.90
20829;DHT22;10575;50.124;8.582;2023-03-08T15:08:40;4.00;99.90
20829;DHT22;10575;50.124;8.582;2023-03-08T15:11:06;4.10;99.90
20829;DHT22;10575;50.124;8.582;2023-03-08T15:13:32;4.10;99.90
20829;DHT22;10575;50.124;8.582;2023-03-08T15:15:57;4.00;99.90
20829;DHT22;10575;50.124;8.582;2023-03-08T15:18:23;4.00;99.90
20829;DHT22;10575;50.124;8.582;2023-03-08T15:20:49;4.00;99.90
20829;DHT22;10575;50.124;8.582;2023-03-08T15:23:28;4.10;99.90
20829;DHT22;10575;50.124;8.582;2023-03-08T15:25:55;4.10;99.90
20829;DHT22;10575;50.124;8.582;2023-03-08T15:28:22;4.10;99.90
20829;DHT22;10575;50.124;8.582;2023-03-08T15:30:49;4.30;99.90
20829;DHT22;10575;50.124;8.582;2023-03-08T15:33:17;4.50;99.90
20829;DHT22;10575;50.124;8.582;2023-03-08T15:35:43;4.70;99.90
20829;DHT22;10575;50.124;8.582;2023-03-08T15:38:12;4.80;99.90
20829;DHT22;10575;50.124;8.582;2023-03-08T15:40:38;4.90;99.90
20829;DHT22;10575;50.124;8.582;2023-03-08T15:43:03;5.00;99.90
20829;DHT22;10575;50.124;8.582;2023-03-08T15:45:29;5.10;99.90
20829;DHT22;10575;50.124;8.582;2023-03-08T15:47:57;5.30;99.90
20829;DHT22;10575;50.124;8.582;2023-03-08T15:50:23;5.30;99.90
20829;DHT22;10575;50.124;8.582;2023-03-08T15:52:48;5.50;99.90
20829;DHT22;10575;50.124;8.582;2023-03-08T15:55:14;5.50;99.90
20829;DHT22;10575;50.124;8.582;2023-03-08T15:57:40;5.60;99.90
20829;DHT22;10575;50.124;8.582;2023-03-08T16:00:08;5.70;99.90
20829;DHT22;10575;50.124;8.582;2023-03-08T16:02:35;5.80;99.90
20829;DHT22;10575;50.124;8.582;2023-03-08T16:05:02;5.80;99.90
20829;DHT22;10575;50.124;8.582;2023-03-08T16:07:28;5.90;99.90
20829;DHT22;10575;50.124;8.582;2023-03-08T16:09:53;5.90;99.90
20829;DHT22;10575;50.124;8.582;2023-03-08T16:12:19;6.00;99.90
20829;DHT22;10575;50.124;8.582;2023-03-08T16:14:46;6.00;99.90
20829;DHT22;10575;50.124;8.582;2023-03-08T16:17:16;6.10;99.90
20829;DHT22;10575;50.124;8.582;2023-03-08T16:19:42;6.10;99.90
20829;DHT22;10575;50.124;8.582;2023-03-08T16:22:08;6.10;99.90
20829;DHT22;10575;50.124;8.582;2023-03-08T16:24:34;6.10;99.90
20829;DHT22;10575;50.124;8.582;2023-03-08T16:26:59;6.20;99.90
20829;DHT22;10575;50.124;8.582;2023-03-08T16:29:25;6.10;99.90
20829;DHT22;10575;50.124;8.582;2023-03-08T16:31:51;6.20;99.90
20829;DHT22;10575;50.124;8.582;2023-03-08T16:34:17;6.10;99.90
20829;DHT22;10575;50.124;8.582;2023-03-08T16:36:43;6.00;99.90
20829;DHT22;10575;50.124;8.582;2023-03-08T16:39:09;5.90;99.90
20829;DHT22;10575;50.124;8.582;2023-03-08T16:41:36;6.00;99.90
20829;DHT22;10575;50.124;8.582;2023-03-08T16:44:03;6.00;99.90
20829;DHT22;10575;50.124;8.582;2023-03-08T16:46:29;6.00;99.90
20829;DHT22;10575;50.124;8.582;2023-03-08T16:48:55;6.00;99.90
20829;DHT22;10575;50.124;8.582;2023-03-08T16:51:24;6.00;99.90
20829;DHT22;10575;50.124;8.582;2023-03-08T16:53:50;6.00;99.90
20829;DHT22;10575;50.124;8.582;2023-03-08T16:56:21;6.10;99.90
20829;DHT22;10575;50.124;8.582;2023-03-08T16:58:47;5.80;99.90
20829;DHT22;10575;50.124;8.582;2023-03-08T17:01:13;5.80;99.90
20829;DHT22;10575;50.124;8.582;2023-03-08T17:03:39;5.80;99.90
20829;DHT22;10575;50.124;8.582;2023-03-08T17:06:09;5.70;99.90
20829;DHT22;10575;50.124;8.582;2023-03-08T17:08:36;5.70;99.90
20829;DHT22;10575;50.124;8.582;2023-03-08T17:11:01;5.90;99.90
20829;DHT22;10575;50.124;8.582;2023-03-08T17:13:29;5.90;99.90
20829;DHT22;10575;50.124;8.582;2023-03-08T17:15:55;5.80;99.90
20829;DHT22;10575;50.124;8.582;2023-03-08T17:18:21;5.50;99.90